createdAt,value
2018-10-09T00:01:40.219Z,5.70
2018-10-09T00:04:08.840Z,5.70
2018-10-09T00:06:37.194Z,5.80
2018-10-09T00:09:06.855Z,5.80
2018-10-09T00:11:35.150Z,5.70
2018-10-09T00:14:03.538Z,5.70
2018-10-09T00:16:31.755Z,5.70
2018-10-09T00:19:00.084Z,5.70
2018-10-09T00:21:28.418Z,5.60
2018-10-09T00:23:56.685Z,5.60
2018-10-09T00:26:24.971Z,5.50
2018-10-09T00:28:53.215Z,5.50
2018-10-09T00:31:21.360Z,5.50
2018-10-09T00:33:49.534Z,5.40
2018-10-09T00:36:17.847Z,5.40
2018-10-09T00:38:46.010Z,5.40
2018-10-09T00:41:14.246Z,5.40
2018-10-09T00:43:42.387Z,5.40
2018-10-09T00:46:10.542Z,5.30
2018-10-09T00:48:38.737Z,5.30
2018-10-09T00:51:06.992Z,5.30
2018-10-09T00:53:35.286Z,5.20
2018-10-09T00:56:03.454Z,5.30
2018-10-09T00:58:31.612Z,5.40
2018-10-09T01:00:59.762Z,5.40
2018-10-09T01:03:27.936Z,5.40
2018-10-09T01:05:56.084Z,5.40
2018-10-09T01:08:24.227Z,5.30
2018-10-09T01:10:52.433Z,5.30
2018-10-09T01:13:20.571Z,5.20
2018-10-09T01:15:48.726Z,5.10
2018-10-09T01:18:16.868Z,5.00
2018-10-09T01:20:45.015Z,5.00
2018-10-09T01:23:13.184Z,5.00
2018-10-09T01:25:41.330Z,5.00
2018-10-09T01:28:09.492Z,4.90
2018-10-09T01:30:37.632Z,5.00
2018-10-09T01:33:05.842Z,5.10
2018-10-09T01:35:34.040Z,5.00
2018-10-09T01:38:02.207Z,5.10
2018-10-09T01:40:30.423Z,5.10
2018-10-09T01:42:58.575Z,5.00
2018-10-09T01:45:26.755Z,4.90
2018-10-09T01:47:54.899Z,4.80
2018-10-09T01:50:23.043Z,4.80
2018-10-09T01:52:51.263Z,4.70
2018-10-09T01:55:19.410Z,4.70
2018-10-09T01:57:47.571Z,4.70
2018-10-09T02:00:15.723Z,4.70
2018-10-09T02:02:43.887Z,4.80
2018-10-09T02:05:12.031Z,4.80
2018-10-09T02:07:40.179Z,4.80
2018-10-09T02:10:08.343Z,4.70
2018-10-09T02:12:36.527Z,4.70
2018-10-09T02:15:05.334Z,4.90
2018-10-09T02:17:33.478Z,4.70
2018-10-09T02:20:01.660Z,4.80
2018-10-09T02:22:29.822Z,4.70
2018-10-09T02:24:57.978Z,4.70
2018-10-09T02:27:26.135Z,4.60
2018-10-09T02:29:54.286Z,4.60
2018-10-09T02:32:22.478Z,4.60
2018-10-09T02:34:50.676Z,4.50
2018-10-09T02:37:18.848Z,4.50
2018-10-09T02:39:47.012Z,4.60
2018-10-09T02:42:15.156Z,4.70
2018-10-09T02:44:43.294Z,4.70
2018-10-09T02:47:11.442Z,4.70
2018-10-09T02:49:39.583Z,4.60
2018-10-09T02:52:07.725Z,4.60
2018-10-09T02:54:35.892Z,4.70
2018-10-09T02:57:04.080Z,4.80
2018-10-09T02:59:32.234Z,4.70
2018-10-09T03:02:00.387Z,4.60
2018-10-09T03:04:28.562Z,4.60
2018-10-09T03:06:56.730Z,4.50
2018-10-09T03:09:24.929Z,4.50
2018-10-09T03:11:53.106Z,4.50
2018-10-09T03:14:21.266Z,4.40
2018-10-09T03:16:49.411Z,4.40
2018-10-09T03:19:17.548Z,4.50
2018-10-09T03:21:45.696Z,4.50
2018-10-09T03:24:13.872Z,4.40
2018-10-09T03:26:42.039Z,4.40
2018-10-09T03:29:10.206Z,4.30
2018-10-09T03:31:38.435Z,4.30
2018-10-09T03:34:06.647Z,4.40
2018-10-09T03:36:34.818Z,4.40
2018-10-09T03:39:03.907Z,4.50
2018-10-09T03:41:32.094Z,4.40
2018-10-09T03:44:00.260Z,4.40
2018-10-09T03:46:28.427Z,4.40
2018-10-09T03:48:56.591Z,4.30
2018-10-09T03:51:24.790Z,4.40
2018-10-09T03:53:53.004Z,4.40
2018-10-09T03:56:21.176Z,4.30
2018-10-09T03:58:49.342Z,4.30
2018-10-09T04:01:17.483Z,4.40
2018-10-09T04:03:45.631Z,4.30
2018-10-09T04:06:13.817Z,4.30
2018-10-09T04:08:41.982Z,4.30
2018-10-09T04:11:10.156Z,4.30
2018-10-09T04:13:38.325Z,4.20
2018-10-09T04:16:07.280Z,4.20
2018-10-09T04:18:35.451Z,4.10
2018-10-09T04:21:03.591Z,4.10
2018-10-09T04:23:31.823Z,4.20
2018-10-09T04:25:59.959Z,4.20
2018-10-09T04:28:28.118Z,4.20
2018-10-09T04:30:56.275Z,4.40
2018-10-09T04:33:24.435Z,4.50
2018-10-09T04:35:52.605Z,4.50
2018-10-09T04:38:20.823Z,4.40
2018-10-09T04:40:48.999Z,4.30
2018-10-09T04:43:17.171Z,4.20
2018-10-09T04:45:45.343Z,4.30
2018-10-09T04:48:13.508Z,4.30
2018-10-09T04:50:41.655Z,4.20
2018-10-09T04:53:09.909Z,4.20
2018-10-09T04:55:38.009Z,4.20
2018-10-09T04:58:06.184Z,4.10
2018-10-09T05:00:34.330Z,4.00
2018-10-09T05:03:02.482Z,4.00
2018-10-09T05:05:30.638Z,4.00
2018-10-09T05:07:58.794Z,3.90
2018-10-09T05:10:26.978Z,3.90
2018-10-09T05:12:55.113Z,3.90
2018-10-09T05:15:23.267Z,4.00
2018-10-09T05:17:51.540Z,3.90
2018-10-09T05:20:19.599Z,3.90
2018-10-09T05:22:47.771Z,3.90
2018-10-09T05:25:15.967Z,3.80
2018-10-09T05:27:44.130Z,3.80
2018-10-09T05:30:12.282Z,3.80
2018-10-09T05:32:40.439Z,3.70
2018-10-09T05:35:08.591Z,3.70
2018-10-09T05:37:36.786Z,3.80
2018-10-09T05:40:05.052Z,3.70
2018-10-09T05:42:33.264Z,3.80
2018-10-09T05:45:01.413Z,3.80
2018-10-09T05:47:29.570Z,3.70
2018-10-09T05:49:57.749Z,3.70
2018-10-09T05:52:26.051Z,3.70
2018-10-09T05:54:54.189Z,3.70
2018-10-09T05:57:22.382Z,3.80
2018-10-09T05:59:50.542Z,3.70
2018-10-09T06:02:18.709Z,3.80
2018-10-09T06:04:46.895Z,4.00
2018-10-09T06:07:15.027Z,4.00
2018-10-09T06:09:43.216Z,4.00
2018-10-09T06:12:11.370Z,4.00
2018-10-09T06:14:39.547Z,4.20
2018-10-09T06:17:07.709Z,4.30
2018-10-09T06:19:35.858Z,4.40
2018-10-09T06:22:04.018Z,4.50
2018-10-09T06:24:32.216Z,4.60
2018-10-09T06:27:00.351Z,4.70
2018-10-09T06:29:28.525Z,4.70
2018-10-09T06:31:56.738Z,4.70
2018-10-09T06:34:24.915Z,4.90
2018-10-09T06:36:53.063Z,5.00
2018-10-09T06:39:21.251Z,5.10
2018-10-09T06:41:49.406Z,5.20
2018-10-09T06:44:17.579Z,5.10
2018-10-09T06:46:45.735Z,5.10
2018-10-09T06:49:13.891Z,5.20
2018-10-09T06:51:42.044Z,5.20
2018-10-09T06:54:10.372Z,5.40
2018-10-09T06:56:38.364Z,5.60
2018-10-09T06:59:06.545Z,5.60
2018-10-09T07:01:34.673Z,5.60
2018-10-09T07:04:02.797Z,6.00
2018-10-09T07:06:30.967Z,6.40
2018-10-09T07:08:59.076Z,6.90
2018-10-09T07:11:27.224Z,7.10
2018-10-09T07:13:55.387Z,7.20
2018-10-09T07:16:23.539Z,7.40
2018-10-09T07:18:51.688Z,7.80
2018-10-09T07:21:19.864Z,8.30
2018-10-09T07:23:48.025Z,8.80
2018-10-09T07:26:16.164Z,9.30
2018-10-09T07:28:44.311Z,9.40
2018-10-09T07:31:12.466Z,9.50
2018-10-09T07:33:40.626Z,9.40
2018-10-09T07:36:09.009Z,9.50
2018-10-09T07:38:37.202Z,9.70
2018-10-09T07:41:05.514Z,9.80
2018-10-09T07:43:33.709Z,9.60
2018-10-09T07:46:02.033Z,9.30
2018-10-09T07:48:30.271Z,9.40
2018-10-09T07:50:58.694Z,9.50
2018-10-09T07:53:26.906Z,9.70
2018-10-09T07:55:55.153Z,10.10
2018-10-09T07:58:23.383Z,10.20
2018-10-09T08:00:51.625Z,10.40
2018-10-09T08:03:19.984Z,10.50
2018-10-09T08:05:48.235Z,10.90
2018-10-09T08:08:16.788Z,11.10
2018-10-09T08:10:45.040Z,11.30
2018-10-09T08:13:13.143Z,11.80
2018-10-09T08:15:41.281Z,11.90
2018-10-09T08:18:09.435Z,12.30
2018-10-09T08:20:37.612Z,12.60
2018-10-09T08:23:05.844Z,12.70
2018-10-09T08:25:33.987Z,12.80
2018-10-09T08:28:02.219Z,12.90
2018-10-09T08:30:30.360Z,13.00
2018-10-09T08:32:58.499Z,13.70
2018-10-09T08:35:26.648Z,13.80
2018-10-09T08:37:54.832Z,14.20
2018-10-09T08:40:23.080Z,14.50
2018-10-09T08:42:51.176Z,15.20
2018-10-09T08:45:19.365Z,16.30
2018-10-09T08:47:47.512Z,16.50
2018-10-09T08:50:15.725Z,16.70
2018-10-09T08:52:43.969Z,17.00
2018-10-09T08:55:12.882Z,17.40
2018-10-09T08:57:41.097Z,17.60
2018-10-09T09:00:10.227Z,18.10
2018-10-09T09:02:38.371Z,18.60
2018-10-09T09:05:07.208Z,19.00
2018-10-09T09:07:35.384Z,19.20
2018-10-09T09:10:03.548Z,20.00
2018-10-09T09:12:31.707Z,20.30
2018-10-09T09:14:59.863Z,20.10
2018-10-09T09:17:28.014Z,20.80
2018-10-09T09:19:56.207Z,21.80
2018-10-09T09:22:24.398Z,22.00
2018-10-09T09:24:52.550Z,22.20
2018-10-09T09:27:20.726Z,23.20
2018-10-09T09:29:48.859Z,22.80
2018-10-09T09:32:17.008Z,23.00
2018-10-09T09:34:45.155Z,22.70
2018-10-09T09:37:13.503Z,22.10
2018-10-09T09:39:41.679Z,21.90
2018-10-09T09:42:09.831Z,21.10
2018-10-09T09:44:37.975Z,20.40
2018-10-09T09:47:06.124Z,19.80
2018-10-09T09:49:34.330Z,19.30
2018-10-09T09:52:02.552Z,19.10
2018-10-09T09:54:30.659Z,19.30
2018-10-09T09:56:58.819Z,19.40
2018-10-09T09:59:26.947Z,19.60
2018-10-09T10:01:55.091Z,20.50
2018-10-09T10:04:23.243Z,21.30
2018-10-09T10:06:51.390Z,21.50
2018-10-09T10:09:20.572Z,22.30
2018-10-09T10:11:48.695Z,22.80
2018-10-09T10:14:16.913Z,23.10
2018-10-09T10:16:45.084Z,23.40
2018-10-09T10:19:13.234Z,23.20
2018-10-09T10:21:41.374Z,23.40
2018-10-09T10:24:09.520Z,23.60
2018-10-09T10:26:37.667Z,23.90
2018-10-09T10:29:06.206Z,24.00
2018-10-09T10:31:34.329Z,24.40
2018-10-09T10:34:02.535Z,24.60
2018-10-09T10:36:30.755Z,24.50
2018-10-09T10:38:58.925Z,24.60
2018-10-09T10:41:27.067Z,25.00
2018-10-09T10:43:55.254Z,25.80
2018-10-09T10:46:23.416Z,26.60
2018-10-09T10:49:00.245Z,26.70
2018-10-09T10:51:28.351Z,26.10
2018-10-09T10:53:56.657Z,25.90
2018-10-09T10:56:24.818Z,25.50
2018-10-09T10:58:52.983Z,26.40
2018-10-09T11:01:21.191Z,26.80
2018-10-09T11:03:49.262Z,27.00
2018-10-09T11:06:17.530Z,27.50
2018-10-09T11:08:46.043Z,26.80
2018-10-09T11:11:14.191Z,26.60
2018-10-09T11:13:42.354Z,26.10
2018-10-09T11:16:10.502Z,26.60
2018-10-09T11:18:38.659Z,26.70
2018-10-09T11:21:06.947Z,27.00
2018-10-09T11:23:35.056Z,27.00
2018-10-09T11:26:03.267Z,27.20
2018-10-09T11:28:31.796Z,27.50
2018-10-09T11:31:00.423Z,27.80
2018-10-09T11:33:28.716Z,27.60
2018-10-09T11:35:56.879Z,27.80
2018-10-09T11:38:26.171Z,27.50
2018-10-09T11:40:54.324Z,26.90
2018-10-09T11:43:22.493Z,26.60
2018-10-09T11:45:50.651Z,26.30
2018-10-09T11:48:18.871Z,26.20
2018-10-09T11:50:47.097Z,27.00
2018-10-09T11:53:15.231Z,26.70
2018-10-09T11:55:43.363Z,26.60
2018-10-09T11:58:11.511Z,26.30
2018-10-09T12:00:41.235Z,25.80
2018-10-09T12:03:09.383Z,25.80
2018-10-09T12:05:37.937Z,26.10
2018-10-09T12:08:06.187Z,25.90
2018-10-09T12:10:34.293Z,25.30
2018-10-09T12:13:02.824Z,25.10
2018-10-09T12:15:30.977Z,26.40
2018-10-09T12:17:59.163Z,26.60
2018-10-09T12:20:27.404Z,26.10
2018-10-09T12:22:55.614Z,25.80
2018-10-09T12:25:23.817Z,24.90
2018-10-09T12:27:52.031Z,25.20
2018-10-09T12:30:20.433Z,25.20
2018-10-09T12:32:48.591Z,24.80
2018-10-09T12:35:16.726Z,26.00
2018-10-09T12:37:45.029Z,26.30
2018-10-09T12:40:13.249Z,25.90
2018-10-09T12:42:41.420Z,25.00
2018-10-09T12:45:09.692Z,25.50
2018-10-09T12:47:37.861Z,25.60
2018-10-09T12:50:06.624Z,25.40
2018-10-09T12:52:34.864Z,25.00
2018-10-09T12:55:03.033Z,24.40
2018-10-09T12:57:31.234Z,23.80
2018-10-09T12:59:59.376Z,23.70
2018-10-09T13:02:27.523Z,23.20
2018-10-09T13:04:55.670Z,22.70
2018-10-09T13:07:23.818Z,22.70
2018-10-09T13:09:52.002Z,22.70
2018-10-09T13:12:20.149Z,22.70
2018-10-09T13:14:48.303Z,22.60
2018-10-09T13:17:16.502Z,22.50
2018-10-09T13:19:44.743Z,22.40
2018-10-09T13:22:13.206Z,22.20
2018-10-09T13:24:41.157Z,22.10
2018-10-09T13:27:09.588Z,22.00
2018-10-09T13:29:37.804Z,21.90
2018-10-09T13:32:06.011Z,21.80
2018-10-09T13:34:34.753Z,21.80
2018-10-09T13:37:02.859Z,22.00
2018-10-09T13:39:31.053Z,22.20
2018-10-09T13:41:59.273Z,22.40
2018-10-09T13:44:27.401Z,22.30
2018-10-09T13:46:55.963Z,22.60
2018-10-09T13:49:24.131Z,22.80
2018-10-09T13:51:52.502Z,22.90
2018-10-09T13:54:20.632Z,22.70
2018-10-09T13:56:48.787Z,22.40
2018-10-09T13:59:16.967Z,22.60
2018-10-09T14:01:45.203Z,22.60
2018-10-09T14:04:13.317Z,22.80
2018-10-09T14:06:41.440Z,23.00
2018-10-09T14:09:10.734Z,22.80
2018-10-09T14:11:39.360Z,22.50
2018-10-09T14:14:07.561Z,22.30
2018-10-09T14:16:35.748Z,22.30
2018-10-09T14:19:03.951Z,22.40
2018-10-09T14:21:32.196Z,22.50
2018-10-09T14:24:00.443Z,22.20
2018-10-09T14:26:28.624Z,22.00
2018-10-09T14:28:56.799Z,21.90
2018-10-09T14:31:24.983Z,21.80
2018-10-09T14:33:53.207Z,21.60
2018-10-09T14:36:21.412Z,21.50
2018-10-09T14:38:49.558Z,21.40
2018-10-09T14:41:17.719Z,21.30
2018-10-09T14:43:45.870Z,21.10
2018-10-09T14:46:14.039Z,21.20
2018-10-09T14:48:42.176Z,21.30
2018-10-09T14:51:10.610Z,21.40
2018-10-09T14:53:38.853Z,21.50
2018-10-09T14:56:07.056Z,21.60
2018-10-09T14:58:35.201Z,21.60
2018-10-09T15:01:03.380Z,21.70
2018-10-09T15:03:31.722Z,21.60
2018-10-09T15:05:59.774Z,21.60
2018-10-09T15:08:27.950Z,21.60
2018-10-09T15:10:56.128Z,21.60
2018-10-09T15:13:24.317Z,21.70
2018-10-09T15:15:52.503Z,21.60
2018-10-09T15:18:20.674Z,21.50
2018-10-09T15:20:48.790Z,21.60
2018-10-09T15:23:16.931Z,21.50
2018-10-09T15:25:45.095Z,21.40
2018-10-09T15:28:13.259Z,21.50
2018-10-09T15:30:41.443Z,21.40
2018-10-09T15:33:09.607Z,21.30
2018-10-09T15:35:37.780Z,21.20
2018-10-09T15:38:06.052Z,21.10
2018-10-09T15:40:34.248Z,21.00
2018-10-09T15:43:02.509Z,20.90
2018-10-09T15:45:30.688Z,20.80
2018-10-09T15:47:58.888Z,20.70
2018-10-09T15:50:27.099Z,20.50
2018-10-09T15:52:55.510Z,20.40
2018-10-09T15:55:23.786Z,20.20
2018-10-09T15:57:51.954Z,20.00
2018-10-09T16:00:20.135Z,19.80
2018-10-09T16:02:48.303Z,19.50
2018-10-09T16:05:16.486Z,19.20
2018-10-09T16:07:44.671Z,19.00
2018-10-09T16:10:12.836Z,18.70
2018-10-09T16:12:41.587Z,18.50
2018-10-09T16:15:09.754Z,18.40
2018-10-09T16:17:37.900Z,18.20
2018-10-09T16:20:06.404Z,18.00
2018-10-09T16:22:34.527Z,17.70
2018-10-09T16:25:02.705Z,17.50
2018-10-09T16:27:30.823Z,17.20
2018-10-09T16:29:58.954Z,17.10
2018-10-09T16:32:27.186Z,16.90
2018-10-09T16:34:55.324Z,16.60
2018-10-09T16:37:23.488Z,16.40
2018-10-09T16:39:51.628Z,16.20
2018-10-09T16:42:19.982Z,16.10
2018-10-09T16:44:48.226Z,15.90
2018-10-09T16:47:16.541Z,15.80
2018-10-09T16:49:44.850Z,15.60
2018-10-09T16:52:13.218Z,15.40
2018-10-09T16:54:41.515Z,15.30
2018-10-09T16:57:09.775Z,15.20
2018-10-09T16:59:38.139Z,15.00
2018-10-09T17:02:07.215Z,14.80
2018-10-09T17:04:35.464Z,14.70
2018-10-09T17:07:03.756Z,14.70
2018-10-09T17:09:31.956Z,14.60
2018-10-09T17:12:00.234Z,14.40
2018-10-09T17:14:28.541Z,14.30
2018-10-09T17:16:56.799Z,14.20
2018-10-09T17:19:25.028Z,14.10
2018-10-09T17:21:53.330Z,13.90
2018-10-09T17:24:21.550Z,13.80
2018-10-09T17:26:49.816Z,13.60
2018-10-09T17:29:17.952Z,13.60
2018-10-09T17:31:46.190Z,13.50
2018-10-09T17:34:14.496Z,13.30
2018-10-09T17:36:42.747Z,13.20
2018-10-09T17:39:11.902Z,13.10
2018-10-09T17:41:40.291Z,13.00
2018-10-09T17:44:08.921Z,12.90
2018-10-09T17:46:38.013Z,12.80
2018-10-09T17:49:06.271Z,12.70
2018-10-09T17:51:34.552Z,12.70
2018-10-09T17:54:02.761Z,12.50
2018-10-09T17:56:30.917Z,12.40
2018-10-09T17:58:59.070Z,12.30
2018-10-09T18:01:27.319Z,12.20
2018-10-09T18:03:55.727Z,12.20
2018-10-09T18:06:24.093Z,12.10
2018-10-09T18:08:52.278Z,12.00
2018-10-09T18:11:20.420Z,11.90
2018-10-09T18:13:48.689Z,11.90
2018-10-09T18:16:16.877Z,11.80
2018-10-09T18:18:45.053Z,11.70
2018-10-09T18:21:13.220Z,11.60
2018-10-09T18:23:41.543Z,11.50
2018-10-09T18:26:10.814Z,11.50
2018-10-09T18:28:39.022Z,11.40
2018-10-09T18:31:07.324Z,11.30
2018-10-09T18:33:35.639Z,11.30
2018-10-09T18:36:03.859Z,11.20
2018-10-09T18:38:32.236Z,11.20
2018-10-09T18:41:00.545Z,11.10
2018-10-09T18:43:28.771Z,11.00
2018-10-09T18:45:57.032Z,10.90
2018-10-09T18:48:25.302Z,10.90
2018-10-09T18:50:53.601Z,10.80
2018-10-09T18:53:22.796Z,10.80
2018-10-09T18:55:51.683Z,10.80
2018-10-09T18:58:19.986Z,10.80
2018-10-09T19:00:48.231Z,10.70
2018-10-09T19:03:16.536Z,10.60
2018-10-09T19:05:44.817Z,10.50
2018-10-09T19:08:13.166Z,10.50
2018-10-09T19:10:41.455Z,10.50
2018-10-09T19:13:09.700Z,10.40
2018-10-09T19:15:38.041Z,10.40
2018-10-09T19:18:06.564Z,10.40
2018-10-09T19:20:34.889Z,10.30
2018-10-09T19:23:03.183Z,10.30
2018-10-09T19:25:31.472Z,10.20
2018-10-09T19:27:59.759Z,10.10
2018-10-09T19:30:28.007Z,10.10
2018-10-09T19:32:58.182Z,10.00
2018-10-09T19:35:26.538Z,9.90
2018-10-09T19:37:54.871Z,9.80
2018-10-09T19:40:23.173Z,9.70
2018-10-09T19:42:51.899Z,9.70
2018-10-09T19:45:20.287Z,9.60
2018-10-09T19:47:48.621Z,9.60
2018-10-09T19:50:16.854Z,9.60
2018-10-09T19:52:45.767Z,9.60
2018-10-09T19:55:18.342Z,9.50
2018-10-09T19:57:47.333Z,9.40
2018-10-09T20:00:15.645Z,9.30
2018-10-09T20:02:43.950Z,9.30
2018-10-09T20:05:12.175Z,9.20
2018-10-09T20:07:40.524Z,9.10
2018-10-09T20:10:09.379Z,9.10
2018-10-09T20:12:37.663Z,9.00
2018-10-09T20:15:05.908Z,8.90
2018-10-09T20:17:34.114Z,8.90
2018-10-09T20:20:02.372Z,8.80
2018-10-09T20:22:30.649Z,8.90
2018-10-09T20:24:59.008Z,8.90
2018-10-09T20:27:27.196Z,8.90
2018-10-09T20:29:55.394Z,8.90
2018-10-09T20:32:23.729Z,8.80
2018-10-09T20:34:52.019Z,8.70
2018-10-09T20:37:20.606Z,8.70
2018-10-09T20:39:48.815Z,8.70
2018-10-09T20:42:17.053Z,8.70
2018-10-09T20:44:45.379Z,8.70
2018-10-09T20:47:13.678Z,8.60
2018-10-09T20:49:41.914Z,8.60
2018-10-09T20:52:10.216Z,8.50
2018-10-09T20:54:38.500Z,8.50
2018-10-09T20:57:06.880Z,8.40
2018-10-09T20:59:35.144Z,8.50
2018-10-09T21:02:03.380Z,8.40
2018-10-09T21:04:31.518Z,8.40
2018-10-09T21:06:59.708Z,8.30
2018-10-09T21:09:27.874Z,8.30
2018-10-09T21:11:56.002Z,8.30
2018-10-09T21:14:24.144Z,8.30
2018-10-09T21:16:52.304Z,8.20
2018-10-09T21:19:20.479Z,8.10
2018-10-09T21:21:48.739Z,8.10
2018-10-09T21:24:16.957Z,8.10
2018-10-09T21:26:45.149Z,8.00
2018-10-09T21:29:13.338Z,8.00
2018-10-09T21:31:41.511Z,7.90
2018-10-09T21:34:09.684Z,7.90
2018-10-09T21:36:37.915Z,7.80
2018-10-09T21:39:07.199Z,7.80
2018-10-09T21:41:35.530Z,7.70
2018-10-09T21:44:03.760Z,7.80
2018-10-09T21:46:31.981Z,7.70
2018-10-09T21:49:00.168Z,7.70
2018-10-09T21:51:28.332Z,7.70
2018-10-09T21:53:56.476Z,7.70
2018-10-09T21:56:24.634Z,7.70
2018-10-09T21:58:52.780Z,7.80
2018-10-09T22:01:20.971Z,7.80
2018-10-09T22:03:49.117Z,7.80
2018-10-09T22:06:17.261Z,7.80
2018-10-09T22:08:45.412Z,7.80
2018-10-09T22:11:13.539Z,7.90
2018-10-09T22:13:41.695Z,8.00
2018-10-09T22:16:09.872Z,8.00
2018-10-09T22:18:38.122Z,7.90
2018-10-09T22:21:06.704Z,8.00
2018-10-09T22:23:34.924Z,8.10
2018-10-09T22:26:03.091Z,8.20
2018-10-09T22:28:31.223Z,8.20
2018-10-09T22:30:59.367Z,8.30
2018-10-09T22:33:27.642Z,8.30
2018-10-09T22:35:55.933Z,8.30
2018-10-09T22:38:24.194Z,8.30
2018-10-09T22:40:52.299Z,8.30
2018-10-09T22:43:20.481Z,8.30
2018-10-09T22:45:48.622Z,8.40
2018-10-09T22:48:16.797Z,8.30
2018-10-09T22:50:44.980Z,8.20
2018-10-09T22:53:13.937Z,8.20
2018-10-09T22:55:42.222Z,8.10
2018-10-09T22:58:10.451Z,8.00
2018-10-09T23:00:38.669Z,8.00
2018-10-09T23:03:06.850Z,7.90
2018-10-09T23:05:34.992Z,7.90
2018-10-09T23:08:03.147Z,7.80
2018-10-09T23:10:31.295Z,7.70
2018-10-09T23:12:59.468Z,7.60
2018-10-09T23:15:27.634Z,7.50
2018-10-09T23:17:55.791Z,7.40
2018-10-09T23:20:23.991Z,7.40
2018-10-09T23:22:52.143Z,7.40
2018-10-09T23:25:20.283Z,7.30
2018-10-09T23:27:48.468Z,7.30
2018-10-09T23:30:16.615Z,7.10
2018-10-09T23:32:44.754Z,7.10
2018-10-09T23:35:12.931Z,7.10
2018-10-09T23:37:41.051Z,7.10
2018-10-09T23:40:09.196Z,7.10
2018-10-09T23:42:37.377Z,7.10
2018-10-09T23:45:05.527Z,7.10
2018-10-09T23:47:33.678Z,7.10
2018-10-09T23:50:01.848Z,7.10
2018-10-09T23:52:30.003Z,7.10
2018-10-09T23:54:58.427Z,7.10
2018-10-09T23:57:26.610Z,7.00
2018-10-09T23:59:54.722Z,6.90
